Terminal Aerodrome Forecast
Issued by NWS

Home | Current Version | Previous Version | Text Only | Print | Product List | Glossary On
Versions: 1 2 3 4 5 6 7 8 9 10 11 12 13 14 15 16 17 18 19 20 21 22 23 24 25 26 27 28 29 30 31 32 33 34 35 36 37 38 39 40 41 42
424
FTUS41 KBOX 251125
TAFBAF
TAF
KBAF 251125Z 2512/2612 01004KT P6SM BKN007 OVC015
     FM251400 01005KT P6SM SCT007 OVC010
     FM251700 VRB03KT P6SM OVC035
     FM260900 00000KT 5SM BR FEW060
     FM261100 00000KT 3SM BR FEW250=

USA.gov is the U.S. government's official web portal to all federal, state and local government web resources and services.